sensor_id;sensor_type;location;lat;lon;timestamp;temperature;humidity
66144;SHT31;52947;50.842;6.084;2023-02-15T00:01:55;3.12;85.70
66144;SHT31;52947;50.842;6.084;2023-02-15T00:04:24;3.04;85.88
66144;SHT31;52947;50.842;6.084;2023-02-15T00:07:14;3.11;86.61
66144;SHT31;52947;50.842;6.084;2023-02-15T00:09:42;3.01;85.94
66144;SHT31;52947;50.842;6.084;2023-02-15T00:12:10;2.95;86.13
66144;SHT31;52947;50.842;6.084;2023-02-15T00:14:38;2.93;86.28
66144;SHT31;52947;50.842;6.084;2023-02-15T00:17:07;3.04;86.63
66144;SHT31;52947;50.842;6.084;2023-02-15T00:19:35;3.04;86.33
66144;SHT31;52947;50.842;6.084;2023-02-15T00:22:03;3.04;86.27
66144;SHT31;52947;50.842;6.084;2023-02-15T00:24:31;3.08;86.57
66144;SHT31;52947;50.842;6.084;2023-02-15T00:26:59;3.18;86.35
66144;SHT31;52947;50.842;6.084;2023-02-15T00:29:27;3.28;86.08
66144;SHT31;52947;50.842;6.084;2023-02-15T00:31:55;3.43;85.97
66144;SHT31;52947;50.842;6.084;2023-02-15T00:34:26;3.48;85.38
66144;SHT31;52947;50.842;6.084;2023-02-15T00:36:56;3.56;85.17
66144;SHT31;52947;50.842;6.084;2023-02-15T00:39:23;3.70;84.95
66144;SHT31;52947;50.842;6.084;2023-02-15T00:41:53;3.80;84.62
66144;SHT31;52947;50.842;6.084;2023-02-15T00:44:21;3.76;84.48
66144;SHT31;52947;50.842;6.084;2023-02-15T00:46:49;3.72;84.63
66144;SHT31;52947;50.842;6.084;2023-02-15T00:49:17;3.85;84.66
66144;SHT31;52947;50.842;6.084;2023-02-15T00:51:46;3.82;84.59
66144;SHT31;52947;50.842;6.084;2023-02-15T00:54:14;3.82;84.54
66144;SHT31;52947;50.842;6.084;2023-02-15T00:56:42;3.62;84.25
66144;SHT31;52947;50.842;6.084;2023-02-15T00:59:10;3.38;84.58
66144;SHT31;52947;50.842;6.084;2023-02-15T01:01:38;3.18;84.98
66144;SHT31;52947;50.842;6.084;2023-02-15T01:04:05;3.00;85.21
66144;SHT31;52947;50.842;6.084;2023-02-15T01:06:33;2.90;85.60
66144;SHT31;52947;50.842;6.084;2023-02-15T01:09:03;2.79;85.70
66144;SHT31;52947;50.842;6.084;2023-02-15T01:11:31;2.65;85.87
66144;SHT31;52947;50.842;6.084;2023-02-15T01:13:59;2.58;86.06
66144;SHT31;52947;50.842;6.084;2023-02-15T01:16:28;2.57;86.75
66144;SHT31;52947;50.842;6.084;2023-02-15T01:18:56;2.52;86.79
66144;SHT31;52947;50.842;6.084;2023-02-15T01:21:25;2.56;87.00
66144;SHT31;52947;50.842;6.084;2023-02-15T01:23:53;2.57;87.19
66144;SHT31;52947;50.842;6.084;2023-02-15T01:26:22;2.57;87.19
66144;SHT31;52947;50.842;6.084;2023-02-15T01:28:50;2.67;87.33
66144;SHT31;52947;50.842;6.084;2023-02-15T01:31:19;2.71;86.99
66144;SHT31;52947;50.842;6.084;2023-02-15T01:33:48;2.64;86.59
66144;SHT31;52947;50.842;6.084;2023-02-15T01:36:16;2.56;86.39
66144;SHT31;52947;50.842;6.084;2023-02-15T01:38:44;2.54;87.39
66144;SHT31;52947;50.842;6.084;2023-02-15T01:41:12;2.50;86.97
66144;SHT31;52947;50.842;6.084;2023-02-15T01:43:56;2.44;87.03
66144;SHT31;52947;50.842;6.084;2023-02-15T01:46:28;2.46;87.27
66144;SHT31;52947;50.842;6.084;2023-02-15T01:49:02;2.49;87.38
66144;SHT31;52947;50.842;6.084;2023-02-15T01:51:32;2.46;87.04
66144;SHT31;52947;50.842;6.084;2023-02-15T01:54:05;2.39;86.73
66144;SHT31;52947;50.842;6.084;2023-02-15T01:56:38;2.29;86.96
66144;SHT31;52947;50.842;6.084;2023-02-15T01:59:13;2.26;87.28
66144;SHT31;52947;50.842;6.084;2023-02-15T02:01:43;2.33;87.72
66144;SHT31;52947;50.842;6.084;2023-02-15T02:04:15;2.23;87.44
66144;SHT31;52947;50.842;6.084;2023-02-15T02:06:46;2.25;87.84
66144;SHT31;52947;50.842;6.084;2023-02-15T02:09:17;2.34;87.99
66144;SHT31;52947;50.842;6.084;2023-02-15T02:11:46;2.44;87.71
66144;SHT31;52947;50.842;6.084;2023-02-15T02:14:17;2.46;87.19
66144;SHT31;52947;50.842;6.084;2023-02-15T02:16:52;2.44;87.25
66144;SHT31;52947;50.842;6.084;2023-02-15T02:19:40;2.43;87.30
66144;SHT31;52947;50.842;6.084;2023-02-15T02:25:38;2.61;87.39
66144;SHT31;52947;50.842;6.084;2023-02-15T02:28:28;2.54;86.61
66144;SHT31;52947;50.842;6.084;2023-02-15T02:31:18;2.46;86.52
66144;SHT31;52947;50.842;6.084;2023-02-15T02:33:58;2.34;86.68
66144;SHT31;52947;50.842;6.084;2023-02-15T02:36:33;2.28;86.67
66144;SHT31;52947;50.842;6.084;2023-02-15T02:39:22;2.30;86.77
66144;SHT31;52947;50.842;6.084;2023-02-15T02:41:57;2.26;86.90
66144;SHT31;52947;50.842;6.084;2023-02-15T02:44:29;2.12;86.52
66144;SHT31;52947;50.842;6.084;2023-02-15T02:47:03;2.06;86.62
66144;SHT31;52947;50.842;6.084;2023-02-15T02:49:35;2.05;87.62
66144;SHT31;52947;50.842;6.084;2023-02-15T02:52:05;1.97;87.39
66144;SHT31;52947;50.842;6.084;2023-02-15T02:54:34;1.94;87.52
66144;SHT31;52947;50.842;6.084;2023-02-15T02:57:03;2.32;88.07
66144;SHT31;52947;50.842;6.084;2023-02-15T02:59:35;2.83;86.38
66144;SHT31;52947;50.842;6.084;2023-02-15T03:02:07;2.84;85.47
66144;SHT31;52947;50.842;6.084;2023-02-15T03:04:44;2.88;85.75
66144;SHT31;52947;50.842;6.084;2023-02-15T03:07:16;2.77;85.23
66144;SHT31;52947;50.842;6.084;2023-02-15T03:09:50;2.68;85.52
66144;SHT31;52947;50.842;6.084;2023-02-15T03:12:20;2.70;85.95
66144;SHT31;52947;50.842;6.084;2023-02-15T03:14:54;2.64;85.68
66144;SHT31;52947;50.842;6.084;2023-02-15T03:17:26;2.58;85.80
66144;SHT31;52947;50.842;6.084;2023-02-15T03:20:00;2.61;85.83
66144;SHT31;52947;50.842;6.084;2023-02-15T03:22:35;2.61;85.71
66144;SHT31;52947;50.842;6.084;2023-02-15T03:25:09;2.49;85.25
66144;SHT31;52947;50.842;6.084;2023-02-15T03:27:41;2.49;85.75
66144;SHT31;52947;50.842;6.084;2023-02-15T03:30:13;2.50;85.86
66144;SHT31;52947;50.842;6.084;2023-02-15T03:32:43;2.42;85.44
66144;SHT31;52947;50.842;6.084;2023-02-15T03:35:13;2.37;85.77
66144;SHT31;52947;50.842;6.084;2023-02-15T03:37:41;2.19;84.80
66144;SHT31;52947;50.842;6.084;2023-02-15T03:40:16;2.01;85.55
66144;SHT31;52947;50.842;6.084;2023-02-15T03:43:08;1.83;85.83
66144;SHT31;52947;50.842;6.084;2023-02-15T03:45:40;1.74;86.37
66144;SHT31;52947;50.842;6.084;2023-02-15T03:48:24;1.60;86.46
66144;SHT31;52947;50.842;6.084;2023-02-15T03:50:56;1.52;87.04
66144;SHT31;52947;50.842;6.084;2023-02-15T03:53:55;1.43;87.40
66144;SHT31;52947;50.842;6.084;2023-02-15T03:56:24;1.43;87.96
66144;SHT31;52947;50.842;6.084;2023-02-15T03:58:52;1.97;88.19
66144;SHT31;52947;50.842;6.084;2023-02-15T04:01:39;2.39;86.02
66144;SHT31;52947;50.842;6.084;2023-02-15T04:04:34;2.26;85.83
66144;SHT31;52947;50.842;6.084;2023-02-15T04:07:05;2.08;85.67
66144;SHT31;52947;50.842;6.084;2023-02-15T04:09:34;1.89;85.86
66144;SHT31;52947;50.842;6.084;2023-02-15T04:12:19;1.65;86.16
66144;SHT31;52947;50.842;6.084;2023-02-15T04:14:47;1.44;86.52
66144;SHT31;52947;50.842;6.084;2023-02-15T04:17:33;1.31;87.35
66144;SHT31;52947;50.842;6.084;2023-02-15T04:20:01;1.22;87.55
66144;SHT31;52947;50.842;6.084;2023-02-15T04:22:48;1.10;87.47
66144;SHT31;52947;50.842;6.084;2023-02-15T04:25:33;1.03;87.87
66144;SHT31;52947;50.842;6.084;2023-02-15T04:28:01;0.97;87.92
66144;SHT31;52947;50.842;6.084;2023-02-15T04:30:29;0.88;87.98
66144;SHT31;52947;50.842;6.084;2023-02-15T04:32:57;0.93;88.52
66144;SHT31;52947;50.842;6.084;2023-02-15T04:35:25;0.90;88.77
66144;SHT31;52947;50.842;6.084;2023-02-15T04:37:54;0.86;88.89
66144;SHT31;52947;50.842;6.084;2023-02-15T04:40:23;0.80;88.62
66144;SHT31;52947;50.842;6.084;2023-02-15T04:42:51;0.85;89.28
66144;SHT31;52947;50.842;6.084;2023-02-15T04:45:19;0.86;89.13
66144;SHT31;52947;50.842;6.084;2023-02-15T04:47:47;0.76;88.54
66144;SHT31;52947;50.842;6.084;2023-02-15T04:50:15;0.76;88.72
66144;SHT31;52947;50.842;6.084;2023-02-15T04:52:42;0.69;88.70
66144;SHT31;52947;50.842;6.084;2023-02-15T04:55:12;0.59;88.74
66144;SHT31;52947;50.842;6.084;2023-02-15T04:57:40;0.52;89.07
66144;SHT31;52947;50.842;6.084;2023-02-15T05:00:09;0.51;89.25
66144;SHT31;52947;50.842;6.084;2023-02-15T05:02:36;0.44;89.63
66144;SHT31;52947;50.842;6.084;2023-02-15T05:05:05;0.37;89.10
66144;SHT31;52947;50.842;6.084;2023-02-15T05:07:33;0.38;89.41
66144;SHT31;52947;50.842;6.084;2023-02-15T05:10:01;0.31;89.84
66144;SHT31;52947;50.842;6.084;2023-02-15T05:12:30;0.24;89.60
66144;SHT31;52947;50.842;6.084;2023-02-15T05:14:58;0.19;89.54
66144;SHT31;52947;50.842;6.084;2023-02-15T05:17:26;0.24;90.16
66144;SHT31;52947;50.842;6.084;2023-02-15T05:19:54;0.24;90.37
66144;SHT31;52947;50.842;6.084;2023-02-15T05:22:22;0.17;89.95
66144;SHT31;52947;50.842;6.084;2023-02-15T05:24:49;0.11;89.93
66144;SHT31;52947;50.842;6.084;2023-02-15T05:27:36;0.08;89.87
66144;SHT31;52947;50.842;6.084;2023-02-15T05:30:21;0.00;90.02
66144;SHT31;52947;50.842;6.084;2023-02-15T05:32:50;-0.03;90.07
66144;SHT31;52947;50.842;6.084;2023-02-15T05:35:18;-0.11;89.97
66144;SHT31;52947;50.842;6.084;2023-02-15T05:37:46;-0.18;89.99
66144;SHT31;52947;50.842;6.084;2023-02-15T05:40:13;-0.23;90.03
66144;SHT31;52947;50.842;6.084;2023-02-15T05:42:43;-0.24;90.43
66144;SHT31;52947;50.842;6.084;2023-02-15T05:45:11;-0.33;90.48
66144;SHT31;52947;50.842;6.084;2023-02-15T05:47:38;-0.37;90.71
66144;SHT31;52947;50.842;6.084;2023-02-15T05:50:07;-0.40;90.80
66144;SHT31;52947;50.842;6.084;2023-02-15T05:52:35;-0.37;91.13
66144;SHT31;52947;50.842;6.084;2023-02-15T05:55:03;-0.35;91.24
66144;SHT31;52947;50.842;6.084;2023-02-15T05:57:31;-0.23;91.80
66144;SHT31;52947;50.842;6.084;2023-02-15T06:00:01;-0.04;92.33
66144;SHT31;52947;50.842;6.084;2023-02-15T06:02:37;0.11;91.89
66144;SHT31;52947;50.842;6.084;2023-02-15T06:05:06;0.22;91.78
66144;SHT31;52947;50.842;6.084;2023-02-15T06:07:34;0.32;91.55
66144;SHT31;52947;50.842;6.084;2023-02-15T06:10:03;0.62;90.94
66144;SHT31;52947;50.842;6.084;2023-02-15T06:12:31;0.88;90.01
66144;SHT31;52947;50.842;6.084;2023-02-15T06:15:00;0.95;89.13
66144;SHT31;52947;50.842;6.084;2023-02-15T06:17:28;1.48;87.15
66144;SHT31;52947;50.842;6.084;2023-02-15T06:19:56;1.67;86.80
66144;SHT31;52947;50.842;6.084;2023-02-15T06:22:24;1.82;86.43
66144;SHT31;52947;50.842;6.084;2023-02-15T06:24:52;2.12;85.45
66144;SHT31;52947;50.842;6.084;2023-02-15T06:27:19;2.11;84.97
66144;SHT31;52947;50.842;6.084;2023-02-15T06:29:47;2.11;85.25
66144;SHT31;52947;50.842;6.084;2023-02-15T06:32:17;2.02;85.11
66144;SHT31;52947;50.842;6.084;2023-02-15T06:34:44;1.82;84.66
66144;SHT31;52947;50.842;6.084;2023-02-15T06:37:14;1.60;85.13
66144;SHT31;52947;50.842;6.084;2023-02-15T06:39:42;1.34;85.45
66144;SHT31;52947;50.842;6.084;2023-02-15T06:42:10;1.12;85.64
66144;SHT31;52947;50.842;6.084;2023-02-15T06:44:38;0.93;86.07
66144;SHT31;52947;50.842;6.084;2023-02-15T06:47:06;0.75;86.42
66144;SHT31;52947;50.842;6.084;2023-02-15T06:49:35;0.66;86.80
66144;SHT31;52947;50.842;6.084;2023-02-15T06:52:03;0.57;87.10
66144;SHT31;52947;50.842;6.084;2023-02-15T06:54:31;0.72;88.18
66144;SHT31;52947;50.842;6.084;2023-02-15T06:56:59;0.90;88.09
66144;SHT31;52947;50.842;6.084;2023-02-15T06:59:27;0.99;87.34
66144;SHT31;52947;50.842;6.084;2023-02-15T07:01:55;0.95;86.80
66144;SHT31;52947;50.842;6.084;2023-02-15T07:04:23;0.99;87.26
66144;SHT31;52947;50.842;6.084;2023-02-15T07:06:52;0.99;87.15
66144;SHT31;52947;50.842;6.084;2023-02-15T07:09:20;1.01;86.83
66144;SHT31;52947;50.842;6.084;2023-02-15T07:11:48;0.93;86.94
66144;SHT31;52947;50.842;6.084;2023-02-15T07:14:33;0.95;87.20
66144;SHT31;52947;50.842;6.084;2023-02-15T07:17:01;0.97;87.39
66144;SHT31;52947;50.842;6.084;2023-02-15T07:19:29;0.97;87.04
66144;SHT31;52947;50.842;6.084;2023-02-15T07:21:59;1.01;87.43
66144;SHT31;52947;50.842;6.084;2023-02-15T07:24:26;1.30;87.79
66144;SHT31;52947;50.842;6.084;2023-02-15T07:26:54;1.61;87.61
66144;SHT31;52947;50.842;6.084;2023-02-15T07:29:24;2.06;87.06
66144;SHT31;52947;50.842;6.084;2023-02-15T07:31:51;2.26;86.03
66144;SHT31;52947;50.842;6.084;2023-02-15T07:34:20;2.79;85.45
66144;SHT31;52947;50.842;6.084;2023-02-15T07:36:50;3.98;84.62
66144;SHT31;52947;50.842;6.084;2023-02-15T07:39:19;5.31;82.35
66144;SHT31;52947;50.842;6.084;2023-02-15T07:41:47;6.54;79.70
66144;SHT31;52947;50.842;6.084;2023-02-15T07:44:17;7.46;76.49
66144;SHT31;52947;50.842;6.084;2023-02-15T07:46:44;8.42;73.45
66144;SHT31;52947;50.842;6.084;2023-02-15T07:49:12;9.16;69.62
66144;SHT31;52947;50.842;6.084;2023-02-15T07:51:41;9.75;67.53
66144;SHT31;52947;50.842;6.084;2023-02-15T07:54:09;10.43;66.82
66144;SHT31;52947;50.842;6.084;2023-02-15T07:56:38;11.12;62.81
66144;SHT31;52947;50.842;6.084;2023-02-15T07:59:06;11.73;62.76
66144;SHT31;52947;50.842;6.084;2023-02-15T08:01:36;12.54;60.77
66144;SHT31;52947;50.842;6.084;2023-02-15T08:04:04;12.94;59.53
66144;SHT31;52947;50.842;6.084;2023-02-15T08:06:34;13.78;56.63
66144;SHT31;52947;50.842;6.084;2023-02-15T08:09:03;14.75;55.82
66144;SHT31;52947;50.842;6.084;2023-02-15T08:11:33;15.61;52.54
66144;SHT31;52947;50.842;6.084;2023-02-15T08:14:06;16.67;49.62
66144;SHT31;52947;50.842;6.084;2023-02-15T08:16:36;17.45;49.08
66144;SHT31;52947;50.842;6.084;2023-02-15T08:19:07;18.45;43.17
66144;SHT31;52947;50.842;6.084;2023-02-15T08:21:37;18.92;42.13
66144;SHT31;52947;50.842;6.084;2023-02-15T08:24:06;19.29;43.01
66144;SHT31;52947;50.842;6.084;2023-02-15T08:26:35;19.91;41.69
66144;SHT31;52947;50.842;6.084;2023-02-15T08:29:05;20.59;37.70
66144;SHT31;52947;50.842;6.084;2023-02-15T08:31:34;21.22;40.20
66144;SHT31;52947;50.842;6.084;2023-02-15T08:34:04;21.68;40.06
66144;SHT31;52947;50.842;6.084;2023-02-15T08:36:32;22.36;39.46
66144;SHT31;52947;50.842;6.084;2023-02-15T08:39:03;22.70;38.66
66144;SHT31;52947;50.842;6.084;2023-02-15T08:41:33;22.60;37.80
66144;SHT31;52947;50.842;6.084;2023-02-15T08:44:04;22.76;37.22
66144;SHT31;52947;50.842;6.084;2023-02-15T08:46:35;22.61;37.15
66144;SHT31;52947;50.842;6.084;2023-02-15T08:49:04;22.55;37.49
66144;SHT31;52947;50.842;6.084;2023-02-15T08:51:33;22.57;35.49
66144;SHT31;52947;50.842;6.084;2023-02-15T08:54:04;22.68;35.00
66144;SHT31;52947;50.842;6.084;2023-02-15T08:56:34;22.47;35.54
66144;SHT31;52947;50.842;6.084;2023-02-15T08:59:03;22.04;37.75
66144;SHT31;52947;50.842;6.084;2023-02-15T09:01:33;22.42;34.49
66144;SHT31;52947;50.842;6.084;2023-02-15T09:04:04;22.60;34.74
66144;SHT31;52947;50.842;6.084;2023-02-15T09:06:32;23.05;32.35
66144;SHT31;52947;50.842;6.084;2023-02-15T09:09:00;22.73;33.36
66144;SHT31;52947;50.842;6.084;2023-02-15T09:11:32;22.26;33.95
66144;SHT31;52947;50.842;6.084;2023-02-15T09:14:02;22.60;34.16
66144;SHT31;52947;50.842;6.084;2023-02-15T09:16:33;22.83;33.18
66144;SHT31;52947;50.842;6.084;2023-02-15T09:19:04;22.74;34.13
66144;SHT31;52947;50.842;6.084;2023-02-15T09:21:33;22.43;35.11
66144;SHT31;52947;50.842;6.084;2023-02-15T09:24:04;22.68;33.68
66144;SHT31;52947;50.842;6.084;2023-02-15T09:26:35;22.29;34.31
66144;SHT31;52947;50.842;6.084;2023-02-15T09:29:03;22.05;34.35
66144;SHT31;52947;50.842;6.084;2023-02-15T09:31:37;22.43;34.17
66144;SHT31;52947;50.842;6.084;2023-02-15T09:34:05;22.97;34.41
66144;SHT31;52947;50.842;6.084;2023-02-15T09:36:34;23.28;33.41
66144;SHT31;52947;50.842;6.084;2023-02-15T09:39:06;23.56;33.51
66144;SHT31;52947;50.842;6.084;2023-02-15T09:41:57;23.97;32.58
66144;SHT31;52947;50.842;6.084;2023-02-15T09:44:38;24.47;32.99
66144;SHT31;52947;50.842;6.084;2023-02-15T09:47:33;23.92;32.23
66144;SHT31;52947;50.842;6.084;2023-02-15T09:50:14;23.83;32.78
66144;SHT31;52947;50.842;6.084;2023-02-15T09:52:56;24.33;31.71
66144;SHT31;52947;50.842;6.084;2023-02-15T09:55:38;24.14;31.95
66144;SHT31;52947;50.842;6.084;2023-02-15T09:58:15;24.50;32.33
66144;SHT31;52947;50.842;6.084;2023-02-15T10:00:53;24.63;31.92
66144;SHT31;52947;50.842;6.084;2023-02-15T10:03:41;25.05;31.27
66144;SHT31;52947;50.842;6.084;2023-02-15T10:06:28;25.19;31.33
66144;SHT31;52947;50.842;6.084;2023-02-15T10:12:19;25.39;31.16
66144;SHT31;52947;50.842;6.084;2023-02-15T10:15:02;25.50;31.83
66144;SHT31;52947;50.842;6.084;2023-02-15T10:17:47;25.50;30.67
66144;SHT31;52947;50.842;6.084;2023-02-15T10:20:25;25.36;30.50
66144;SHT31;52947;50.842;6.084;2023-02-15T10:23:05;25.51;29.89
66144;SHT31;52947;50.842;6.084;2023-02-15T10:25:43;25.84;29.79
66144;SHT31;52947;50.842;6.084;2023-02-15T10:28:15;26.22;29.93
66144;SHT31;52947;50.842;6.084;2023-02-15T10:30:47;26.39;30.63
66144;SHT31;52947;50.842;6.084;2023-02-15T10:33:31;26.37;30.37
66144;SHT31;52947;50.842;6.084;2023-02-15T10:36:18;26.56;30.52
66144;SHT31;52947;50.842;6.084;2023-02-15T10:38:53;26.45;30.90
66144;SHT31;52947;50.842;6.084;2023-02-15T10:41:31;26.28;31.18
66144;SHT31;52947;50.842;6.084;2023-02-15T10:44:12;26.35;30.90
66144;SHT31;52947;50.842;6.084;2023-02-15T10:46:58;26.76;30.01
66144;SHT31;52947;50.842;6.084;2023-02-15T10:49:39;27.26;29.52
66144;SHT31;52947;50.842;6.084;2023-02-15T10:52:21;27.51;29.06
66144;SHT31;52947;50.842;6.084;2023-02-15T10:55:02;27.49;28.46
66144;SHT31;52947;50.842;6.084;2023-02-15T10:57:38;27.41;29.38
66144;SHT31;52947;50.842;6.084;2023-02-15T11:00:13;27.17;29.66
66144;SHT31;52947;50.842;6.084;2023-02-15T11:03:00;27.14;31.58
66144;SHT31;52947;50.842;6.084;2023-02-15T11:05:39;27.20;31.14
66144;SHT31;52947;50.842;6.084;2023-02-15T11:08:11;27.37;31.18
66144;SHT31;52947;50.842;6.084;2023-02-15T11:10:44;26.58;31.93
66144;SHT31;52947;50.842;6.084;2023-02-15T11:13:15;26.88;31.81
66144;SHT31;52947;50.842;6.084;2023-02-15T11:15:46;26.25;31.95
66144;SHT31;52947;50.842;6.084;2023-02-15T11:18:21;26.65;31.58
66144;SHT31;52947;50.842;6.084;2023-02-15T11:20:54;26.10;31.76
66144;SHT31;52947;50.842;6.084;2023-02-15T11:23:26;26.38;30.54
66144;SHT31;52947;50.842;6.084;2023-02-15T11:25:56;26.78;29.69
66144;SHT31;52947;50.842;6.084;2023-02-15T11:28:30;27.07;29.66
66144;SHT31;52947;50.842;6.084;2023-02-15T11:31:02;27.02;30.56
66144;SHT31;52947;50.842;6.084;2023-02-15T11:33:43;26.63;31.05
66144;SHT31;52947;50.842;6.084;2023-02-15T11:36:15;26.34;31.07
66144;SHT31;52947;50.842;6.084;2023-02-15T11:38:47;25.87;31.38
66144;SHT31;52947;50.842;6.084;2023-02-15T11:41:18;25.69;31.80
66144;SHT31;52947;50.842;6.084;2023-02-15T11:43:53;26.07;32.37
66144;SHT31;52947;50.842;6.084;2023-02-15T11:46:21;26.72;30.50
66144;SHT31;52947;50.842;6.084;2023-02-15T11:48:49;26.71;30.19
66144;SHT31;52947;50.842;6.084;2023-02-15T11:51:19;26.69;29.95
66144;SHT31;52947;50.842;6.084;2023-02-15T11:53:51;26.61;30.64
66144;SHT31;52947;50.842;6.084;2023-02-15T11:56:22;26.32;30.65
66144;SHT31;52947;50.842;6.084;2023-02-15T11:58:53;26.10;31.37
66144;SHT31;52947;50.842;6.084;2023-02-15T12:01:31;25.53;31.85
66144;SHT31;52947;50.842;6.084;2023-02-15T12:04:04;25.79;31.87
66144;SHT31;52947;50.842;6.084;2023-02-15T12:06:36;25.42;31.89
66144;SHT31;52947;50.842;6.084;2023-02-15T12:09:16;24.94;32.45
66144;SHT31;52947;50.842;6.084;2023-02-15T12:11:48;25.01;32.05
66144;SHT31;52947;50.842;6.084;2023-02-15T12:14:16;24.92;32.83
66144;SHT31;52947;50.842;6.084;2023-02-15T12:16:46;24.82;32.14
66144;SHT31;52947;50.842;6.084;2023-02-15T12:19:27;24.61;32.56
66144;SHT31;52947;50.842;6.084;2023-02-15T12:21:57;25.11;32.78
66144;SHT31;52947;50.842;6.084;2023-02-15T12:24:28;24.56;32.31
66144;SHT31;52947;50.842;6.084;2023-02-15T12:27:00;24.71;31.73
66144;SHT31;52947;50.842;6.084;2023-02-15T12:29:31;24.79;32.17
66144;SHT31;52947;50.842;6.084;2023-02-15T12:32:03;24.99;31.58
66144;SHT31;52947;50.842;6.084;2023-02-15T12:34:35;24.33;32.81
66144;SHT31;52947;50.842;6.084;2023-02-15T12:37:10;24.28;32.98
66144;SHT31;52947;50.842;6.084;2023-02-15T12:39:51;24.02;33.97
66144;SHT31;52947;50.842;6.084;2023-02-15T12:42:20;22.94;39.16
66144;SHT31;52947;50.842;6.084;2023-02-15T12:44:57;22.80;40.13
66144;SHT31;52947;50.842;6.084;2023-02-15T12:47:26;22.86;39.32
66144;SHT31;52947;50.842;6.084;2023-02-15T12:50:12;22.76;39.70
66144;SHT31;52947;50.842;6.084;2023-02-15T12:52:45;21.78;41.59
66144;SHT31;52947;50.842;6.084;2023-02-15T12:55:21;21.99;41.90
66144;SHT31;52947;50.842;6.084;2023-02-15T12:58:05;22.45;40.78
66144;SHT31;52947;50.842;6.084;2023-02-15T13:00:33;22.35;40.78
66144;SHT31;52947;50.842;6.084;2023-02-15T13:03:01;22.40;40.47
66144;SHT31;52947;50.842;6.084;2023-02-15T13:05:31;22.55;40.13
66144;SHT31;52947;50.842;6.084;2023-02-15T13:08:02;21.40;42.10
66144;SHT31;52947;50.842;6.084;2023-02-15T13:10:36;21.67;41.43
66144;SHT31;52947;50.842;6.084;2023-02-15T13:13:09;21.85;41.27
66144;SHT31;52947;50.842;6.084;2023-02-15T13:15:40;21.61;42.65
66144;SHT31;52947;50.842;6.084;2023-02-15T13:18:13;20.92;43.23
66144;SHT31;52947;50.842;6.084;2023-02-15T13:20:42;20.96;43.29
66144;SHT31;52947;50.842;6.084;2023-02-15T13:23:21;21.16;42.77
66144;SHT31;52947;50.842;6.084;2023-02-15T13:25:52;20.71;43.64
66144;SHT31;52947;50.842;6.084;2023-02-15T13:28:24;20.68;44.20
66144;SHT31;52947;50.842;6.084;2023-02-15T13:30:54;19.60;45.88
66144;SHT31;52947;50.842;6.084;2023-02-15T13:33:26;19.20;46.64
66144;SHT31;52947;50.842;6.084;2023-02-15T13:36:03;18.67;47.78
66144;SHT31;52947;50.842;6.084;2023-02-15T13:38:46;17.69;50.05
66144;SHT31;52947;50.842;6.084;2023-02-15T13:41:18;18.20;48.64
66144;SHT31;52947;50.842;6.084;2023-02-15T13:43:54;18.48;48.15
66144;SHT31;52947;50.842;6.084;2023-02-15T13:46:34;18.17;48.85
66144;SHT31;52947;50.842;6.084;2023-02-15T13:49:13;17.93;49.69
66144;SHT31;52947;50.842;6.084;2023-02-15T13:51:47;17.89;49.56
66144;SHT31;52947;50.842;6.084;2023-02-15T13:54:44;18.10;49.18
66144;SHT31;52947;50.842;6.084;2023-02-15T13:57:34;18.29;48.77
66144;SHT31;52947;50.842;6.084;2023-02-15T14:00:15;18.68;47.97
66144;SHT31;52947;50.842;6.084;2023-02-15T14:03:13;18.50;48.46
66144;SHT31;52947;50.842;6.084;2023-02-15T14:05:57;18.31;48.56
66144;SHT31;52947;50.842;6.084;2023-02-15T14:08:41;18.10;47.58
66144;SHT31;52947;50.842;6.084;2023-02-15T14:11:17;17.99;47.01
66144;SHT31;52947;50.842;6.084;2023-02-15T14:17:20;17.06;48.92
66144;SHT31;52947;50.842;6.084;2023-02-15T14:19:54;16.94;49.26
66144;SHT31;52947;50.842;6.084;2023-02-15T14:22:30;16.59;49.84
66144;SHT31;52947;50.842;6.084;2023-02-15T14:25:15;16.50;50.19
66144;SHT31;52947;50.842;6.084;2023-02-15T14:27:53;16.20;50.34
66144;SHT31;52947;50.842;6.084;2023-02-15T14:30:25;16.13;50.62
66144;SHT31;52947;50.842;6.084;2023-02-15T14:33:01;15.97;51.04
66144;SHT31;52947;50.842;6.084;2023-02-15T14:35:32;15.89;51.26
66144;SHT31;52947;50.842;6.084;2023-02-15T14:38:06;15.82;49.56
66144;SHT31;52947;50.842;6.084;2023-02-15T14:40:41;15.71;49.38
66144;SHT31;52947;50.842;6.084;2023-02-15T14:43:46;15.64;49.94
66144;SHT31;52947;50.842;6.084;2023-02-15T14:46:25;15.53;50.82
66144;SHT31;52947;50.842;6.084;2023-02-15T14:48:57;15.47;50.73
66144;SHT31;52947;50.842;6.084;2023-02-15T14:51:54;15.33;50.90
66144;SHT31;52947;50.842;6.084;2023-02-15T14:54:58;15.27;51.02
66144;SHT31;52947;50.842;6.084;2023-02-15T14:57:31;15.19;50.54
66144;SHT31;52947;50.842;6.084;2023-02-15T15:03:21;15.17;50.56
66144;SHT31;52947;50.842;6.084;2023-02-15T15:05:54;15.07;51.25
66144;SHT31;52947;50.842;6.084;2023-02-15T15:08:29;15.02;50.32
66144;SHT31;52947;50.842;6.084;2023-02-15T15:14:10;14.76;52.07
66144;SHT31;52947;50.842;6.084;2023-02-15T15:16:49;14.73;52.33
66144;SHT31;52947;50.842;6.084;2023-02-15T15:22:35;14.65;51.32
66144;SHT31;52947;50.842;6.084;2023-02-15T15:25:09;14.55;52.01
66144;SHT31;52947;50.842;6.084;2023-02-15T15:27:49;14.44;52.36
66144;SHT31;52947;50.842;6.084;2023-02-15T15:34:04;14.31;52.47
66144;SHT31;52947;50.842;6.084;2023-02-15T15:43:11;14.10;53.04
66144;SHT31;52947;50.842;6.084;2023-02-15T15:45:55;14.08;53.56
66144;SHT31;52947;50.842;6.084;2023-02-15T15:48:30;13.91;54.04
66144;SHT31;52947;50.842;6.084;2023-02-15T15:51:02;13.78;54.30
66144;SHT31;52947;50.842;6.084;2023-02-15T15:53:37;13.70;54.81
66144;SHT31;52947;50.842;6.084;2023-02-15T15:56:09;13.59;54.75
66144;SHT31;52947;50.842;6.084;2023-02-15T15:58:44;13.46;55.50
66144;SHT31;52947;50.842;6.084;2023-02-15T16:01:15;13.30;55.47
66144;SHT31;52947;50.842;6.084;2023-02-15T16:03:51;13.15;56.29
66144;SHT31;52947;50.842;6.084;2023-02-15T16:06:31;13.09;57.11
66144;SHT31;52947;50.842;6.084;2023-02-15T16:09:16;12.99;56.99
66144;SHT31;52947;50.842;6.084;2023-02-15T16:11:46;12.94;57.67
66144;SHT31;52947;50.842;6.084;2023-02-15T16:14:22;12.81;57.54
66144;SHT31;52947;50.842;6.084;2023-02-15T16:16:55;12.65;58.13
66144;SHT31;52947;50.842;6.084;2023-02-15T16:19:27;12.48;57.87
66144;SHT31;52947;50.842;6.084;2023-02-15T16:21:57;12.31;58.67
66144;SHT31;52947;50.842;6.084;2023-02-15T16:24:43;12.17;59.68
66144;SHT31;52947;50.842;6.084;2023-02-15T16:27:30;12.04;60.60
66144;SHT31;52947;50.842;6.084;2023-02-15T16:33:07;11.96;61.30
66144;SHT31;52947;50.842;6.084;2023-02-15T16:35:36;11.99;61.62
66144;SHT31;52947;50.842;6.084;2023-02-15T16:38:05;11.85;61.13
66144;SHT31;52947;50.842;6.084;2023-02-15T16:40:42;11.68;61.81
66144;SHT31;52947;50.842;6.084;2023-02-15T16:43:24;11.58;62.50
66144;SHT31;52947;50.842;6.084;2023-02-15T16:46:03;11.51;62.70
66144;SHT31;52947;50.842;6.084;2023-02-15T16:48:35;11.45;62.81